Crossma Heliport

FR-0143 · Manche, Normandy, 法国

罗盘
风向 的 风向 的 风向 到 风向 260° 直升机
风: 7 kt, 3 beaufort
0 ft 1.000 2.000 3.000 4.000 5.000
Cloud Cloud
FEW 700
Cloud Cloud Cloud Cloud
SCT 3.200
METAR EGJA 170920Z 26007KT 220V290 9999 FEW007 SCT032 17/15 Q1022

METAR Crossma Heliport - FR-0143

Crossma Heliport是,法国中的直升机场。 该机场位于纬度49,68512和经度-1,90995。 这个机场没有ICAO代码,我们使用FR-0143作为参考。 机场在Brest FIR中。

该航空气象观测是针对Alderney Airport在2024年7月17日 10:20, 当地时间进行的。

机场观察

风向为260°,速度为7 kt。 风向在220°和290°之间变化。

可见度为10 km 或者更多。

有几云在700 ft的高度 和 疏云,零星散落的云朵在3.200 ft的高度。 没有观察到天花板。

温度和风寒是17 °C。 露点为15 °C,相对湿度为88%。 海平面上的气压为1022 hPa (QNH)。

白天

今天,太阳从06:19升起,在22:08降落。 这适用于Crossma Heliport,世界夏令时可能有所不同。 当地时间与世界标准时间之间的时差为+2 小时。 夏令时目前正在进行中。

公司介绍

我们没有关于这个机场的公司信息。

体会

到Vliegles.nl去找飞行课程,跳伞和其他飞行体验。 浏览页面,了解Crossma Heliport附近所有可用的活动。 你也可以使用搜索功能来寻找你所在地附近的特定飞行课程、跳伞或其他飞行体验。

乌云

700 ft FEW 几云
3.200 ft SCT 疏云,零星散落的云朵

温度 & 天气

温度 17 °C
露点 15 °C
相对湿度 88%
Kp-index 0 (0-9)

白天

日出
06:20
中午
14:15
日落
22:09 (10:31)

小工具

你想在你的网站上有一个关于Crossma Heliport的当前航空天气(METAR)的小部件吗?

显示HTML代码
报告变更